Bay Port, New York
Current Conditions -  °F | °C
As of 1:13 AM on Wednesday 22 Oct 2014 (Local Time) from KISP Reporting Station
Overcast Overcast  
Wind Chill: 14°   Ceiling: 1500
Heat Index: 14°   Visibility: 10mi
Dew Point: 13°   Wind: 12mph
Humidity: 93%   Direction: 40°NE
Pressure: 29.88"   Gusts: NA
Location:  40.746°N, 73.0539°W
Report Text: KISP 220513Z AUTO 04010KT 10SM SCT010 BKN015 OVC090 14/13 A2988 RMK AO2 T01440133
Loading
Personal Weather Stations






























Interactive Weather Map
Tropical Storm Tracking
New forecast layout! Learn more

10-Day Weather Forecast

Advertisements
Track Severe Weather on mobile